createdAt,value
2017-10-20T00:00:44.008Z,1010.69
2017-10-20T00:01:52.874Z,1010.68
2017-10-20T00:03:02.179Z,1010.64
2017-10-20T00:04:11.019Z,1010.62
2017-10-20T00:05:19.868Z,1010.59
2017-10-20T00:06:28.715Z,1010.65
2017-10-20T00:07:37.565Z,1010.66
2017-10-20T00:08:46.714Z,1010.64
2017-10-20T00:09:55.562Z,1010.65
2017-10-20T00:11:04.412Z,1010.62
2017-10-20T00:12:13.260Z,1010.62
2017-10-20T00:13:22.106Z,1010.6
2017-10-20T00:14:31.402Z,1010.67
2017-10-20T00:15:40.251Z,1010.66
2017-10-20T00:16:49.099Z,1010.68
2017-10-20T00:17:57.945Z,1010.68
2017-10-20T00:19:06.796Z,1010.68
2017-10-20T00:20:15.691Z,1010.64
2017-10-20T00:21:24.540Z,1010.66
2017-10-20T00:22:33.392Z,1010.65
2017-10-20T00:23:42.241Z,1010.66
2017-10-20T00:24:51.090Z,1010.64
2017-10-20T00:26:00.037Z,1010.68
2017-10-20T00:27:08.886Z,1010.67
2017-10-20T00:28:17.735Z,1010.63
2017-10-20T00:29:26.584Z,1010.68
2017-10-20T00:30:35.434Z,1010.64
2017-10-20T00:31:44.283Z,1010.66
2017-10-20T00:32:53.135Z,1010.66
2017-10-20T00:34:01.985Z,1010.69
2017-10-20T00:35:10.832Z,1010.63
2017-10-20T00:36:19.681Z,1010.65
2017-10-20T00:37:28.529Z,1010.61
2017-10-20T00:38:37.377Z,1010.61
2017-10-20T00:39:46.227Z,1010.61
2017-10-20T00:40:55.075Z,1010.58
2017-10-20T00:42:03.924Z,1010.54
2017-10-20T00:43:12.976Z,1010.49
2017-10-20T00:44:21.825Z,1010.52
2017-10-20T00:45:30.674Z,1010.51
2017-10-20T00:46:39.524Z,1010.5
2017-10-20T00:47:48.378Z,1010.54
2017-10-20T00:48:57.322Z,1010.6
2017-10-20T00:50:06.169Z,1010.59
2017-10-20T00:51:15.017Z,1010.65
2017-10-20T00:52:23.866Z,1010.62
2017-10-20T00:53:32.714Z,1010.6
2017-10-20T00:54:41.565Z,1010.57
2017-10-20T00:55:50.413Z,1010.53
2017-10-20T00:56:59.261Z,1010.56
2017-10-20T00:58:08.110Z,1010.52
2017-10-20T00:59:16.959Z,1010.52
2017-10-20T01:00:25.908Z,1010.55
2017-10-20T01:01:34.855Z,1010.56
2017-10-20T01:02:43.703Z,1010.55
2017-10-20T01:03:52.552Z,1010.55
2017-10-20T01:05:01.401Z,1010.54
2017-10-20T01:06:10.352Z,1010.52
2017-10-20T01:07:19.202Z,1010.48
2017-10-20T01:08:28.047Z,1010.46
2017-10-20T01:09:36.895Z,1010.46
2017-10-20T01:10:45.744Z,1010.44
2017-10-20T01:11:54.741Z,1010.46
2017-10-20T01:13:03.589Z,1010.44
2017-10-20T01:14:12.780Z,1010.46
2017-10-20T01:15:21.624Z,1010.44
2017-10-20T01:16:30.476Z,1010.46
2017-10-20T01:17:39.470Z,1010.41
2017-10-20T01:18:48.318Z,1010.42
2017-10-20T01:19:57.168Z,1010.37
2017-10-20T01:21:06.018Z,1010.38
2017-10-20T01:22:15.215Z,1010.37
2017-10-20T01:23:24.215Z,1010.37
2017-10-20T01:24:33.065Z,1010.37
2017-10-20T01:25:41.913Z,1010.39
2017-10-20T01:26:50.760Z,1010.38
2017-10-20T01:27:59.606Z,1010.4
2017-10-20T01:29:08.550Z,1010.4
2017-10-20T01:30:17.404Z,1010.39
2017-10-20T01:31:26.244Z,1010.35
2017-10-20T01:32:35.094Z,1010.29
2017-10-20T01:33:43.943Z,1010.26
2017-10-20T01:34:52.898Z,1010.29
2017-10-20T01:36:01.742Z,1010.28
2017-10-20T01:37:10.595Z,1010.3
2017-10-20T01:38:19.444Z,1010.34
2017-10-20T01:39:28.293Z,1010.28
2017-10-20T01:40:37.297Z,1010.27
2017-10-20T01:41:46.142Z,1010.32
2017-10-20T01:42:54.990Z,1010.28
2017-10-20T01:44:03.841Z,1010.3
2017-10-20T01:45:12.689Z,1010.28
2017-10-20T01:46:21.696Z,1010.27
2017-10-20T01:47:30.538Z,1010.26
2017-10-20T01:48:39.389Z,1010.26
2017-10-20T01:49:48.236Z,1010.22
2017-10-20T01:50:57.084Z,1010.2
2017-10-20T01:52:06.233Z,1010.21
2017-10-20T01:53:15.084Z,1010.21
2017-10-20T01:54:23.932Z,1010.31
2017-10-20T01:55:32.779Z,1010.31
2017-10-20T01:56:41.628Z,1010.25
2017-10-20T01:57:50.876Z,1010.24
2017-10-20T01:58:59.725Z,1010.25
2017-10-20T02:00:08.573Z,1010.23
2017-10-20T02:01:17.423Z,1010.21
2017-10-20T02:02:26.271Z,1010.2
2017-10-20T02:03:35.469Z,1010.14
2017-10-20T02:04:44.320Z,1010.2
2017-10-20T02:05:53.169Z,1010.17
2017-10-20T02:07:02.021Z,1010.19
2017-10-20T02:08:10.870Z,1010.17
2017-10-20T02:09:19.817Z,1010.18
2017-10-20T02:10:28.663Z,1010.22
2017-10-20T02:11:37.512Z,1010.18
2017-10-20T02:12:46.359Z,1010.17
2017-10-20T02:13:55.212Z,1010.17
2017-10-20T02:15:04.156Z,1010.21
2017-10-20T02:16:13.006Z,1010.21
2017-10-20T02:17:21.851Z,1010.17
2017-10-20T02:18:30.718Z,1010.14
2017-10-20T02:19:39.552Z,1010.12
2017-10-20T02:20:48.700Z,1010.13
2017-10-20T02:21:57.547Z,1010.15
2017-10-20T02:23:06.394Z,1010.13
2017-10-20T02:24:15.242Z,1010.15
2017-10-20T02:25:24.091Z,1010.16
2017-10-20T02:26:33.241Z,1010.14
2017-10-20T02:27:42.091Z,1010.11
2017-10-20T02:28:50.939Z,1010.13
2017-10-20T02:30:00.137Z,1010.17
2017-10-20T02:31:08.986Z,1010.17
2017-10-20T02:32:17.987Z,1010.11
2017-10-20T02:33:26.834Z,1010.1
2017-10-20T02:34:36.026Z,1010.08
2017-10-20T02:35:44.872Z,1010.06
2017-10-20T02:36:53.721Z,1010.05
2017-10-20T02:38:02.724Z,1010.07
2017-10-20T02:39:11.567Z,1010.05
2017-10-20T02:40:20.413Z,1010.03
2017-10-20T02:41:29.270Z,1009.99
2017-10-20T02:42:38.115Z,1010
2017-10-20T02:43:47.272Z,1010
2017-10-20T02:44:56.463Z,1009.91
2017-10-20T02:46:05.311Z,1009.95
2017-10-20T02:47:14.156Z,1010.02
2017-10-20T02:48:23.005Z,1010.07
2017-10-20T02:49:32.500Z,1009.98
2017-10-20T02:50:41.344Z,1010.03
2017-10-20T02:51:50.200Z,1009.97
2017-10-20T02:52:59.039Z,1009.97
2017-10-20T02:54:07.889Z,1009.94
2017-10-20T02:55:16.888Z,1009.94
2017-10-20T02:56:25.737Z,1009.96
2017-10-20T02:57:34.585Z,1009.93
2017-10-20T02:58:43.436Z,1010
2017-10-20T02:59:52.283Z,1009.96
2017-10-20T03:01:01.281Z,1009.95
2017-10-20T03:02:10.129Z,1009.95
2017-10-20T03:03:18.976Z,1009.93
2017-10-20T03:04:27.821Z,1009.94
2017-10-20T03:05:36.669Z,1009.91
2017-10-20T03:06:45.767Z,1009.89
2017-10-20T03:07:54.615Z,1009.93
2017-10-20T03:09:03.466Z,1009.93
2017-10-20T03:10:12.311Z,1009.93
2017-10-20T03:11:21.163Z,1009.96
2017-10-20T03:12:30.308Z,1009.97
2017-10-20T03:13:39.198Z,1009.94
2017-10-20T03:14:48.009Z,1009.93
2017-10-20T03:15:56.856Z,1009.92
2017-10-20T03:17:05.705Z,1009.9
2017-10-20T03:18:14.653Z,1009.9
2017-10-20T03:19:23.499Z,1009.87
2017-10-20T03:20:32.346Z,1009.86
2017-10-20T03:21:41.193Z,1009.9
2017-10-20T03:22:50.041Z,1009.89
2017-10-20T03:23:59.040Z,1009.92
2017-10-20T03:25:07.887Z,1009.84
2017-10-20T03:26:16.739Z,1009.86
2017-10-20T03:27:25.594Z,1009.85
2017-10-20T03:28:34.435Z,1009.9
2017-10-20T03:29:43.583Z,1009.94
2017-10-20T03:30:52.774Z,1009.94
2017-10-20T03:32:01.622Z,1009.94
2017-10-20T03:33:10.471Z,1009.89
2017-10-20T03:34:19.322Z,1009.95
2017-10-20T03:35:28.172Z,1009.91
2017-10-20T03:36:37.371Z,1009.91
2017-10-20T03:37:46.219Z,1009.93
2017-10-20T03:38:55.063Z,1009.91
2017-10-20T03:40:03.911Z,1009.9
2017-10-20T03:41:12.855Z,1009.97
2017-10-20T03:42:21.701Z,1009.99
2017-10-20T03:43:30.550Z,1010.01
2017-10-20T03:44:39.399Z,1009.97
2017-10-20T03:45:48.248Z,1009.95
2017-10-20T03:46:57.197Z,1009.99
2017-10-20T03:48:06.046Z,1009.99
2017-10-20T03:49:14.893Z,1010.01
2017-10-20T03:50:23.741Z,1009.99
2017-10-20T03:51:32.588Z,1010.01
2017-10-20T03:52:41.535Z,1009.97
2017-10-20T03:53:50.385Z,1009.94
2017-10-20T03:54:59.238Z,1009.93
2017-10-20T03:56:08.437Z,1009.94
2017-10-20T03:57:17.284Z,1009.91
2017-10-20T03:58:26.130Z,1009.9
2017-10-20T03:59:34.978Z,1009.9
2017-10-20T04:00:44.172Z,1009.87
2017-10-20T04:01:53.022Z,1009.83
2017-10-20T04:03:01.871Z,1009.84
2017-10-20T04:04:10.919Z,1009.8
2017-10-20T04:05:20.127Z,1009.81
2017-10-20T04:06:28.970Z,1009.79
2017-10-20T04:07:37.819Z,1009.82
2017-10-20T04:08:46.672Z,1009.76
2017-10-20T04:09:55.517Z,1009.73
2017-10-20T04:11:04.366Z,1009.78
2017-10-20T04:12:13.212Z,1009.77
2017-10-20T04:13:22.062Z,1009.66
2017-10-20T04:14:30.909Z,1009.72
2017-10-20T04:15:40.009Z,1009.73
2017-10-20T04:16:48.858Z,1009.75
2017-10-20T04:17:57.707Z,1009.76
2017-10-20T04:19:06.559Z,1009.75
2017-10-20T04:20:15.408Z,1009.71
2017-10-20T04:21:24.558Z,1009.77
2017-10-20T04:22:33.407Z,1009.79
2017-10-20T04:23:42.259Z,1009.72
2017-10-20T04:24:51.103Z,1009.73
2017-10-20T04:25:59.951Z,1009.73
2017-10-20T04:27:08.948Z,1009.71
2017-10-20T04:28:17.794Z,1009.76
2017-10-20T04:29:26.640Z,1009.73
2017-10-20T04:30:35.487Z,1009.8
2017-10-20T04:31:44.335Z,1009.74
2017-10-20T04:32:53.233Z,1009.79
2017-10-20T04:34:02.079Z,1009.83
2017-10-20T04:35:10.926Z,1009.87
2017-10-20T04:36:20.124Z,1009.84
2017-10-20T04:37:28.978Z,1009.87
2017-10-20T04:38:37.822Z,1009.86
2017-10-20T04:39:46.670Z,1009.86
2017-10-20T04:40:55.516Z,1009.91
2017-10-20T04:42:04.367Z,1009.93
2017-10-20T04:43:13.213Z,1009.86
2017-10-20T04:44:22.212Z,1009.88
2017-10-20T04:45:31.059Z,1009.84
2017-10-20T04:46:39.908Z,1009.76
2017-10-20T04:47:49.099Z,1009.71
2017-10-20T04:48:57.945Z,1009.74
2017-10-20T04:50:06.895Z,1009.78
2017-10-20T04:51:15.745Z,1009.7
2017-10-20T04:52:24.594Z,1009.72
2017-10-20T04:53:33.444Z,1009.71
2017-10-20T04:54:42.289Z,1009.68
2017-10-20T04:55:51.138Z,1009.65
2017-10-20T04:56:59.990Z,1009.56
2017-10-20T04:58:08.843Z,1009.52
2017-10-20T04:59:17.687Z,1009.4
2017-10-20T05:00:26.536Z,1009.43
2017-10-20T05:01:35.470Z,1009.37
2017-10-20T05:02:44.322Z,1009.35
2017-10-20T05:03:53.171Z,1009.35
2017-10-20T05:05:02.022Z,1009.38
2017-10-20T05:06:11.123Z,1009.36
2017-10-20T05:07:19.974Z,1009.37
2017-10-20T05:08:28.823Z,1009.36
2017-10-20T05:09:37.676Z,1009.41
2017-10-20T05:10:46.526Z,1009.42
2017-10-20T05:11:55.426Z,1009.41
2017-10-20T05:13:04.274Z,1009.39
2017-10-20T05:14:13.126Z,1009.39
2017-10-20T05:15:21.975Z,1009.36
2017-10-20T05:16:30.828Z,1009.22
2017-10-20T05:17:39.821Z,1009.17
2017-10-20T05:18:48.674Z,1009.13
2017-10-20T05:19:57.523Z,1009.16
2017-10-20T05:21:06.373Z,1009.12
2017-10-20T05:22:15.233Z,1009.05
2017-10-20T05:23:24.227Z,1008.99
2017-10-20T05:24:33.077Z,1009.07
2017-10-20T05:25:41.935Z,1009.06
2017-10-20T05:26:50.778Z,1009.06
2017-10-20T05:27:59.625Z,1009
2017-10-20T05:29:08.622Z,1008.87
2017-10-20T05:30:17.819Z,1008.81
2017-10-20T05:31:26.677Z,1008.95
2017-10-20T05:32:35.526Z,1008.9
2017-10-20T05:33:44.373Z,1008.94
2017-10-20T05:34:53.324Z,1008.88
2017-10-20T05:36:02.177Z,1008.97
2017-10-20T05:37:11.029Z,1008.98
2017-10-20T05:38:19.883Z,1008.95
2017-10-20T05:39:28.733Z,1008.96
2017-10-20T05:40:37.884Z,1008.95
2017-10-20T05:41:46.733Z,1008.95
2017-10-20T05:42:55.585Z,1008.96
2017-10-20T05:44:04.433Z,1008.97
2017-10-20T05:45:13.284Z,1008.98
2017-10-20T05:46:22.283Z,1009.01
2017-10-20T05:47:31.131Z,1008.96
2017-10-20T05:48:39.979Z,1008.9
2017-10-20T05:49:48.831Z,1008.87
2017-10-20T05:50:57.682Z,1008.91
2017-10-20T05:52:06.530Z,1008.98
2017-10-20T05:53:15.381Z,1008.91
2017-10-20T05:54:24.224Z,1009.05
2017-10-20T05:55:33.078Z,1008.99
2017-10-20T05:56:42.043Z,1008.91
2017-10-20T05:57:50.992Z,1008.94
2017-10-20T05:58:59.843Z,1008.86
2017-10-20T06:00:08.692Z,1008.87
2017-10-20T06:01:17.541Z,1008.81
2017-10-20T06:02:26.388Z,1008.88
2017-10-20T06:03:35.388Z,1008.85
2017-10-20T06:04:44.242Z,1008.88
2017-10-20T06:05:53.438Z,1008.87
2017-10-20T06:07:02.289Z,1008.89
2017-10-20T06:08:11.139Z,1008.92
2017-10-20T06:09:20.337Z,1008.87
2017-10-20T06:10:29.186Z,1008.93
2017-10-20T06:11:38.035Z,1008.94
2017-10-20T06:12:46.887Z,1008.99
2017-10-20T06:13:55.741Z,1009.04
2017-10-20T06:15:04.840Z,1009.13
2017-10-20T06:16:13.689Z,1009.16
2017-10-20T06:17:22.537Z,1009.04
2017-10-20T06:18:31.387Z,1008.97
2017-10-20T06:19:40.239Z,1008.98
2017-10-20T06:20:49.393Z,1008.95
2017-10-20T06:21:58.245Z,1008.96
2017-10-20T06:23:07.099Z,1009
2017-10-20T06:24:15.945Z,1009.04
2017-10-20T06:25:24.798Z,1009.08
2017-10-20T06:26:33.650Z,1009.06
2017-10-20T06:27:42.500Z,1009.08
2017-10-20T06:28:51.353Z,1009.13
2017-10-20T06:30:00.210Z,1009.17
2017-10-20T06:31:09.403Z,1009.17
2017-10-20T06:32:18.406Z,1009.2
2017-10-20T06:33:27.255Z,1009.2
2017-10-20T06:34:36.105Z,1009.26
2017-10-20T06:35:44.954Z,1009.27
2017-10-20T06:36:53.801Z,1009.26
2017-10-20T06:38:03.243Z,1009.27
2017-10-20T06:39:12.093Z,1009.29
2017-10-20T06:40:20.943Z,1009.32
2017-10-20T06:41:29.793Z,1009.32
2017-10-20T06:42:38.645Z,1009.26
2017-10-20T06:43:47.644Z,1009.31
2017-10-20T06:44:56.841Z,1009.32
2017-10-20T06:46:06.059Z,1009.36
2017-10-20T06:47:14.910Z,1009.38
2017-10-20T06:48:23.753Z,1009.43
2017-10-20T06:49:32.754Z,1009.43
2017-10-20T06:50:41.607Z,1009.43
2017-10-20T06:51:50.457Z,1009.45
2017-10-20T06:52:59.308Z,1009.42
2017-10-20T06:54:08.159Z,1009.4
2017-10-20T06:55:17.316Z,1009.4
2017-10-20T06:56:26.161Z,1009.36
2017-10-20T06:57:35.011Z,1009.32
2017-10-20T06:58:43.871Z,1009.39
2017-10-20T06:59:52.724Z,1009.35
2017-10-20T07:01:01.773Z,1009.38
2017-10-20T07:02:10.922Z,1009.4
2017-10-20T07:03:19.775Z,1009.39
2017-10-20T07:04:28.968Z,1009.4
2017-10-20T07:05:37.820Z,1009.46
2017-10-20T07:06:46.674Z,1009.47
2017-10-20T07:07:55.521Z,1009.51
2017-10-20T07:09:04.370Z,1009.53
2017-10-20T07:10:13.221Z,1009.5
2017-10-20T07:11:22.070Z,1009.53
2017-10-20T07:12:31.171Z,1009.5
2017-10-20T07:13:40.021Z,1009.5
2017-10-20T07:14:48.902Z,1009.54
2017-10-20T07:15:57.725Z,1009.6
2017-10-20T07:17:06.572Z,1009.67
2017-10-20T07:18:15.525Z,1009.7
2017-10-20T07:19:24.376Z,1009.69
2017-10-20T07:20:33.226Z,1009.74
2017-10-20T07:21:42.075Z,1009.71
2017-10-20T07:22:51.280Z,1009.78
2017-10-20T07:24:00.277Z,1009.81
2017-10-20T07:25:09.127Z,1009.68
2017-10-20T07:26:17.979Z,1009.68
2017-10-20T07:27:27.182Z,1009.76
2017-10-20T07:28:36.028Z,1009.81
2017-10-20T07:29:44.987Z,1009.85
2017-10-20T07:30:53.833Z,1009.79
2017-10-20T07:32:02.681Z,1009.76
2017-10-20T07:33:11.531Z,1009.86
2017-10-20T07:34:20.383Z,1009.94
2017-10-20T07:35:29.391Z,1009.88
2017-10-20T07:36:38.239Z,1009.84
2017-10-20T07:37:47.092Z,1009.82
2017-10-20T07:38:55.945Z,1009.82
2017-10-20T07:40:04.794Z,1009.82
2017-10-20T07:41:13.951Z,1009.82
2017-10-20T07:42:22.796Z,1009.86
2017-10-20T07:43:31.642Z,1009.88
2017-10-20T07:44:40.492Z,1009.87
2017-10-20T07:45:49.341Z,1009.91
2017-10-20T07:46:58.392Z,1009.91
2017-10-20T07:48:07.240Z,1009.92
2017-10-20T07:49:16.090Z,1009.92
2017-10-20T07:50:24.941Z,1010.04
2017-10-20T07:51:33.790Z,1010.1
2017-10-20T07:52:42.787Z,1010.08
2017-10-20T07:53:51.635Z,1010.06
2017-10-20T07:55:00.487Z,1010.1
2017-10-20T07:56:09.338Z,1010.11
2017-10-20T07:57:18.187Z,1010.09
2017-10-20T07:58:27.240Z,1010.12
2017-10-20T07:59:36.092Z,1010.12
2017-10-20T08:00:44.945Z,1010.18
2017-10-20T08:01:53.796Z,1010.15
2017-10-20T08:03:02.652Z,1010.17
2017-10-20T08:04:11.749Z,1010.17
2017-10-20T08:05:20.599Z,1010.17
2017-10-20T08:06:29.448Z,1010.17
2017-10-20T08:07:38.304Z,1010.18
2017-10-20T08:08:47.150Z,1010.19
2017-10-20T08:09:56.051Z,1010.18
2017-10-20T08:11:04.901Z,1010.13
2017-10-20T08:12:13.751Z,1010.18
2017-10-20T08:13:22.599Z,1010.21
2017-10-20T08:14:31.451Z,1010.23
2017-10-20T08:15:40.453Z,1010.21
2017-10-20T08:16:49.305Z,1010.3
2017-10-20T08:17:58.153Z,1010.3
2017-10-20T08:19:07.003Z,1010.36
2017-10-20T08:20:15.852Z,1010.31
2017-10-20T08:21:24.800Z,1010.3
2017-10-20T08:22:33.651Z,1010.3
2017-10-20T08:23:42.504Z,1010.23
2017-10-20T08:24:51.353Z,1010.31
2017-10-20T08:26:00.201Z,1010.29
2017-10-20T08:27:09.109Z,1010.25
2017-10-20T08:28:17.964Z,1010.26
2017-10-20T08:29:26.805Z,1010.25
2017-10-20T08:30:35.655Z,1010.31
2017-10-20T08:31:44.505Z,1010.25
2017-10-20T08:32:53.404Z,1010.24
2017-10-20T08:34:02.259Z,1010.26
2017-10-20T08:35:11.108Z,1010.22
2017-10-20T08:36:19.960Z,1010.25
2017-10-20T08:37:28.811Z,1010.26
2017-10-20T08:38:37.913Z,1010.27
2017-10-20T08:39:46.763Z,1010.29
2017-10-20T08:40:55.614Z,1010.22
2017-10-20T08:42:04.465Z,1010.27
2017-10-20T08:43:13.315Z,1010.29
2017-10-20T08:44:22.661Z,1010.32
2017-10-20T08:45:31.858Z,1010.37
2017-10-20T08:46:40.710Z,1010.4
2017-10-20T08:47:49.560Z,1010.39
2017-10-20T08:48:58.410Z,1010.37
2017-10-20T08:50:07.463Z,1010.37
2017-10-20T08:51:16.312Z,1010.31
2017-10-20T08:52:25.164Z,1010.32
2017-10-20T08:53:34.361Z,1010.37
2017-10-20T08:54:43.213Z,1010.29
2017-10-20T08:55:52.163Z,1010.32
2017-10-20T08:57:01.013Z,1010.3
2017-10-20T08:58:09.862Z,1010.32
2017-10-20T08:59:18.712Z,1010.35
2017-10-20T09:00:27.562Z,1010.33
2017-10-20T09:01:36.464Z,1010.31
2017-10-20T09:02:45.315Z,1010.22
2017-10-20T09:03:54.163Z,1010.34
2017-10-20T09:05:03.014Z,1010.26
2017-10-20T09:06:11.865Z,1010.21
2017-10-20T09:07:20.722Z,1010.21
2017-10-20T09:08:29.913Z,1010.19
2017-10-20T09:09:38.765Z,1010.29
2017-10-20T09:10:47.614Z,1010.27
2017-10-20T09:11:56.460Z,1010.24
2017-10-20T09:13:05.751Z,1010.28
2017-10-20T09:14:14.604Z,1010.27
2017-10-20T09:15:23.456Z,1010.19
2017-10-20T09:16:32.315Z,1010.15
2017-10-20T09:17:41.158Z,1010.19
2017-10-20T09:18:50.161Z,1010.17
2017-10-20T09:19:59.016Z,1010.15
2017-10-20T09:21:07.861Z,1010.15
2017-10-20T09:22:16.717Z,1010.1
2017-10-20T09:23:25.561Z,1010.13
2017-10-20T09:24:34.460Z,1010.16
2017-10-20T09:25:43.311Z,1010.17
2017-10-20T09:26:52.163Z,1010.13
2017-10-20T09:28:01.014Z,1010.12
2017-10-20T09:29:09.868Z,1010.1
2017-10-20T09:30:18.972Z,1010.05
2017-10-20T09:31:28.170Z,1010.03
2017-10-20T09:32:37.020Z,1010.06
2017-10-20T09:33:45.871Z,1010.02
2017-10-20T09:34:54.724Z,1010.01
2017-10-20T09:36:03.628Z,1010.03
2017-10-20T09:37:12.480Z,1010.05
2017-10-20T09:38:21.330Z,1010.01
2017-10-20T09:39:30.181Z,1010.01
2017-10-20T09:40:39.035Z,1009.99
2017-10-20T09:41:48.087Z,1009.93
2017-10-20T09:42:56.947Z,1009.95
2017-10-20T09:44:06.172Z,1009.92
2017-10-20T09:45:15.026Z,1009.9
2017-10-20T09:46:24.232Z,1009.92
2017-10-20T09:47:33.235Z,1009.89
2017-10-20T09:48:42.092Z,1009.8
2017-10-20T09:49:50.942Z,1009.76
2017-10-20T09:50:59.792Z,1009.83
2017-10-20T09:52:08.644Z,1009.78
2017-10-20T09:53:17.642Z,1009.82
2017-10-20T09:54:26.494Z,1009.82
2017-10-20T09:55:35.345Z,1009.8
2017-10-20T09:56:44.195Z,1009.77
2017-10-20T09:57:53.047Z,1009.74
2017-10-20T09:59:01.946Z,1009.7
2017-10-20T10:00:10.795Z,1009.69
2017-10-20T10:01:19.653Z,1009.59
2017-10-20T10:02:28.504Z,1009.58
2017-10-20T10:03:37.354Z,1009.6
2017-10-20T10:04:46.304Z,1009.58
2017-10-20T10:05:55.155Z,1009.61
2017-10-20T10:07:04.007Z,1009.6
2017-10-20T10:08:12.857Z,1009.66
2017-10-20T10:09:21.708Z,1009.66
2017-10-20T10:10:30.614Z,1009.65
2017-10-20T10:11:39.465Z,1009.64
2017-10-20T10:12:48.314Z,1009.63
2017-10-20T10:13:57.164Z,1009.63
2017-10-20T10:15:06.015Z,1009.65
2017-10-20T10:16:15.017Z,1009.61
2017-10-20T10:17:23.868Z,1009.62
2017-10-20T10:18:33.071Z,1009.6
2017-10-20T10:19:41.968Z,1009.61
2017-10-20T10:20:50.829Z,1009.56
2017-10-20T10:21:59.824Z,1009.56
2017-10-20T10:23:08.676Z,1009.59
2017-10-20T10:24:17.531Z,1009.56
2017-10-20T10:25:26.385Z,1009.56
2017-10-20T10:26:35.583Z,1009.6
2017-10-20T10:27:44.585Z,1009.56
2017-10-20T10:28:53.438Z,1009.58
2017-10-20T10:30:02.288Z,1009.58
2017-10-20T10:31:11.487Z,1009.57
2017-10-20T10:32:20.336Z,1009.62
2017-10-20T10:33:29.337Z,1009.63
2017-10-20T10:34:38.188Z,1009.59
2017-10-20T10:35:47.388Z,1009.57
2017-10-20T10:36:56.242Z,1009.61
2017-10-20T10:38:05.094Z,1009.61
2017-10-20T10:39:14.045Z,1009.64
2017-10-20T10:40:22.899Z,1009.7
2017-10-20T10:41:31.752Z,1009.69
2017-10-20T10:42:40.605Z,1009.67
2017-10-20T10:43:49.459Z,1009.71
2017-10-20T10:44:58.314Z,1009.73
2017-10-20T10:46:07.189Z,1009.7
2017-10-20T10:47:16.038Z,1009.7
2017-10-20T10:48:24.864Z,1009.7
2017-10-20T10:49:33.712Z,1009.66
2017-10-20T10:50:42.667Z,1009.68
2017-10-20T10:51:51.520Z,1009.71
2017-10-20T10:53:00.374Z,1009.7
2017-10-20T10:54:09.230Z,1009.74
2017-10-20T10:55:18.085Z,1009.7
2017-10-20T10:56:27.039Z,1009.7
2017-10-20T10:57:35.891Z,1009.73
2017-10-20T10:58:44.744Z,1009.7
2017-10-20T10:59:53.592Z,1009.73
2017-10-20T11:01:02.791Z,1009.71
2017-10-20T11:02:11.844Z,1009.73
2017-10-20T11:03:20.694Z,1009.78
2017-10-20T11:04:29.546Z,1009.77
2017-10-20T11:05:38.901Z,1009.73
2017-10-20T11:06:47.751Z,1009.77
2017-10-20T11:07:56.753Z,1009.74
2017-10-20T11:09:05.607Z,1009.7
2017-10-20T11:10:14.465Z,1009.65
2017-10-20T11:11:23.661Z,1009.66
2017-10-20T11:12:32.513Z,1009.65
2017-10-20T11:13:41.565Z,1009.58
2017-10-20T11:14:50.415Z,1009.53
2017-10-20T11:15:59.266Z,1009.46
2017-10-20T11:17:08.115Z,1009.45
2017-10-20T11:18:16.968Z,1009.43
2017-10-20T11:19:25.918Z,1009.4
2017-10-20T11:20:34.769Z,1009.37
2017-10-20T11:21:43.621Z,1009.28
2017-10-20T11:22:52.474Z,1009.17
2017-10-20T11:24:01.329Z,1009.16
2017-10-20T11:25:10.581Z,1009.2
2017-10-20T11:26:19.433Z,1009.29
2017-10-20T11:27:28.283Z,1009.28
2017-10-20T11:28:37.137Z,1009.3
2017-10-20T11:29:45.989Z,1009.29
2017-10-20T11:30:55.296Z,1009.28
2017-10-20T11:32:04.151Z,1009.37
2017-10-20T11:33:13.348Z,1009.38
2017-10-20T11:34:22.200Z,1009.43
2017-10-20T11:35:31.055Z,1009.4
2017-10-20T11:36:40.208Z,1009.4
2017-10-20T11:37:49.061Z,1009.38
2017-10-20T11:38:57.917Z,1009.36
2017-10-20T11:40:07.114Z,1009.38
2017-10-20T11:41:15.966Z,1009.41
2017-10-20T11:42:24.826Z,1009.23
2017-10-20T11:43:34.021Z,1009.17
2017-10-20T11:44:42.872Z,1009.18
2017-10-20T11:45:51.725Z,1009.08
2017-10-20T11:47:00.577Z,1009.05
2017-10-20T11:48:09.727Z,1008.91
2017-10-20T11:49:18.577Z,1008.96
2017-10-20T11:50:27.431Z,1009.02
2017-10-20T11:51:36.289Z,1009.07
2017-10-20T11:52:45.143Z,1009.04
2017-10-20T11:53:54.197Z,1009.09
2017-10-20T11:55:03.049Z,1009.14
2017-10-20T11:56:11.901Z,1009.17
2017-10-20T11:57:20.751Z,1009.31
2017-10-20T11:58:29.600Z,1009.43
2017-10-20T11:59:38.651Z,1009.33
2017-10-20T12:00:47.500Z,1009.21
2017-10-20T12:01:56.356Z,1009.16
2017-10-20T12:03:05.205Z,1009.14
2017-10-20T12:04:14.055Z,1009.1
2017-10-20T12:05:23.206Z,1009
2017-10-20T12:06:32.058Z,1008.92
2017-10-20T12:07:41.251Z,1008.89
2017-10-20T12:08:50.453Z,1009
2017-10-20T12:09:59.317Z,1008.99
2017-10-20T12:11:08.371Z,1008.98
2017-10-20T12:12:17.224Z,1009
2017-10-20T12:13:26.077Z,1008.99
2017-10-20T12:14:34.931Z,1009.03
2017-10-20T12:15:43.781Z,1009.01
2017-10-20T12:16:52.733Z,1008.95
2017-10-20T12:18:01.589Z,1008.9
2017-10-20T12:19:10.440Z,1008.88
2017-10-20T12:20:19.290Z,1008.79
2017-10-20T12:21:28.143Z,1008.82
2017-10-20T12:22:37.439Z,1008.83
2017-10-20T12:23:46.291Z,1008.83
2017-10-20T12:24:55.142Z,1008.87
2017-10-20T12:26:03.995Z,1008.77
2017-10-20T12:27:12.846Z,1008.85
2017-10-20T12:28:21.997Z,1008.86
2017-10-20T12:29:30.848Z,1008.87
2017-10-20T12:30:39.700Z,1008.83
2017-10-20T12:31:48.558Z,1008.85
2017-10-20T12:32:57.420Z,1008.82
2017-10-20T12:34:06.314Z,1008.83
2017-10-20T12:35:15.168Z,1008.89
2017-10-20T12:36:24.020Z,1008.91
2017-10-20T12:37:32.875Z,1008.91
2017-10-20T12:38:41.725Z,1008.88
2017-10-20T12:39:50.675Z,1008.88
2017-10-20T12:40:59.536Z,1008.83
2017-10-20T12:42:08.399Z,1008.79
2017-10-20T12:43:17.253Z,1008.81
2017-10-20T12:44:26.112Z,1008.79
2017-10-20T12:45:35.451Z,1008.77
2017-10-20T12:46:44.261Z,1008.73
2017-10-20T12:47:53.110Z,1008.71
2017-10-20T12:49:01.963Z,1008.7
2017-10-20T12:50:10.813Z,1008.8
2017-10-20T12:51:20.257Z,1008.84
2017-10-20T12:52:29.111Z,1008.9
2017-10-20T12:53:37.963Z,1008.98
2017-10-20T12:54:47.505Z,1008.98
2017-10-20T12:55:56.359Z,1008.97
2017-10-20T12:57:05.631Z,1008.94
2017-10-20T12:58:14.515Z,1008.86
2017-10-20T12:59:23.720Z,1008.83
2017-10-20T13:00:32.577Z,1008.82
2017-10-20T13:01:41.424Z,1009.02
2017-10-20T13:02:50.276Z,1009.01
2017-10-20T13:03:59.128Z,1008.84
2017-10-20T13:05:07.978Z,1008.84
2017-10-20T13:06:16.829Z,1008.95
2017-10-20T13:07:25.682Z,1008.89
2017-10-20T13:08:34.732Z,1008.93
2017-10-20T13:09:43.585Z,1008.9
2017-10-20T13:10:52.439Z,1008.88
2017-10-20T13:12:01.641Z,1008.95
2017-10-20T13:13:10.496Z,1008.89
2017-10-20T13:14:19.652Z,1008.88
2017-10-20T13:15:28.513Z,1008.84
2017-10-20T13:16:37.359Z,1008.89
2017-10-20T13:17:46.214Z,1008.9
2017-10-20T13:18:55.064Z,1008.94
2017-10-20T13:20:04.077Z,1009
2017-10-20T13:21:12.928Z,1008.97
2017-10-20T13:22:21.782Z,1009.02
2017-10-20T13:23:30.635Z,1009.05
2017-10-20T13:24:39.489Z,1009.06
2017-10-20T13:25:48.441Z,1009.01
2017-10-20T13:26:57.296Z,1009.03
2017-10-20T13:28:06.144Z,1009.07
2017-10-20T13:29:14.998Z,1009.04
2017-10-20T13:30:23.849Z,1009.04
2017-10-20T13:31:32.903Z,1009.02
2017-10-20T13:32:41.757Z,1009.09
2017-10-20T13:33:50.614Z,1009.07
2017-10-20T13:34:59.467Z,1009.03
2017-10-20T13:36:08.321Z,1009.03
2017-10-20T13:37:17.281Z,1008.99
2017-10-20T13:38:26.135Z,1009.04
2017-10-20T13:39:35.339Z,1009.03
2017-10-20T13:40:44.547Z,1009.06
2017-10-20T13:41:53.387Z,1009.09
2017-10-20T13:43:02.240Z,1009.02
2017-10-20T13:44:11.096Z,1009.07
2017-10-20T13:45:19.954Z,1009.05
2017-10-20T13:46:28.802Z,1009.01
2017-10-20T13:47:37.658Z,1009.06
2017-10-20T13:48:46.612Z,1009.04
2017-10-20T13:49:55.472Z,1009.05
2017-10-20T13:51:04.327Z,1009.11
2017-10-20T13:52:13.189Z,1009.09
2017-10-20T13:53:22.037Z,1009.1
2017-10-20T13:54:31.043Z,1009.04
2017-10-20T13:55:39.898Z,1009.04
2017-10-20T13:56:48.755Z,1009
2017-10-20T13:57:57.604Z,1009